Time;durP1;ratioP1;P1;durP2;ratioP2;P2;SDS_P1;SDS_P2;PMS_P1;PMS_P2;Temp;Humidity;BMP_temperature;BMP_pressure;BME280_temperature;BME280_humidity;BME280_pressure;Samples;Min_cycle;Max_cycle;Signal;HPM_P1;HPM_P2
2022/07/20 00:02:12;;;;;;;12.70;10.20;;;;;;;17.69;99.91;99368.69;105230;1268;61265;-72
2022/07/20 00:04:38;;;;;;;19.50;11.10;;;;;;;17.62;100.00;99369.35;105237;1271;61236;-71
2022/07/20 00:07:04;;;;;;;17.20;11.70;;;;;;;17.54;100.00;99365.55;105253;1270;61401;-71
2022/07/20 00:12:15;;;;;;;14.90;11.30;;;;;;;17.46;100.00;99363.85;105183;1271;73368;-72
2022/07/20 00:14:41;;;;;;;12.90;10.50;;;;;;;17.43;100.00;99362.43;105230;1271;61360;-72
2022/07/20 00:17:08;;;;;;;12.90;10.40;;;;;;;17.38;100.00;99360.45;105243;1271;61319;-72
2022/07/20 00:19:34;;;;;;;18.70;12.30;;;;;;;17.33;100.00;99358.95;105224;1271;61374;-72
2022/07/20 00:22:00;;;;;;;19.70;13.70;;;;;;;17.28;100.00;99358.66;105213;1270;61328;-72
2022/07/20 00:24:26;;;;;;;20.70;14.00;;;;;;;17.26;100.00;99361.58;105228;1269;61410;-72
2022/07/20 00:26:52;;;;;;;19.00;13.10;;;;;;;17.23;100.00;99358.98;105220;1271;61297;-72
2022/07/20 00:29:18;;;;;;;19.80;14.30;;;;;;;17.20;100.00;99361.40;105220;1268;61252;-72
2022/07/20 00:31:45;;;;;;;18.20;12.70;;;;;;;17.17;100.00;99361.08;105192;1271;61301;-72
2022/07/20 00:34:11;;;;;;;20.00;13.20;;;;;;;17.15;100.00;99359.80;104992;1271;61518;-72
2022/07/20 00:36:36;;;;;;;18.00;13.40;;;;;;;17.14;100.00;99358.16;105231;1269;61289;-71
2022/07/20 00:39:03;;;;;;;15.90;12.40;;;;;;;17.13;100.00;99358.75;105279;1271;61424;-71
2022/07/20 00:41:29;;;;;;;16.60;12.30;;;;;;;17.11;100.00;99358.23;105254;1271;74809;-72
2022/07/20 00:44:09;;;;;;;16.90;12.70;;;;;;;17.06;100.00;99362.07;105238;1268;61373;-72
2022/07/20 00:46:42;;;;;;;17.30;12.20;;;;;;;16.99;100.00;99359.05;105254;1271;74206;-71
2022/07/20 00:49:09;;;;;;;13.80;12.20;;;;;;;16.92;100.00;99353.23;105258;1268;61274;-71
2022/07/20 00:51:37;;;;;;;17.40;12.10;;;;;;;16.87;100.00;99354.55;105267;1269;61393;-73
2022/07/20 00:54:05;;;;;;;19.60;13.50;;;;;;;16.84;100.00;99357.52;105292;1271;75215;-72
2022/07/20 00:56:31;;;;;;;19.30;14.10;;;;;;;16.81;100.00;99355.25;105234;1271;69811;-72
2022/07/20 00:58:57;;;;;;;16.40;12.60;;;;;;;16.80;100.00;99351.83;105247;1271;73281;-72
2022/07/20 01:01:24;;;;;;;23.40;13.10;;;;;;;16.78;100.00;99354.30;105178;1271;61361;-71
2022/07/20 01:03:50;;;;;;;19.60;13.40;;;;;;;16.76;100.00;99358.02;105280;1269;61387;-71
2022/07/20 01:06:16;;;;;;;14.50;11.90;;;;;;;16.73;100.00;99355.57;105199;1268;61444;-72
2022/07/20 01:08:43;;;;;;;15.70;11.90;;;;;;;16.71;100.00;99355.64;105224;1269;61378;-72
2022/07/20 01:11:09;;;;;;;14.50;12.10;;;;;;;16.68;100.00;99359.56;104960;1268;61263;-72
2022/07/20 01:13:35;;;;;;;15.40;12.80;;;;;;;16.67;100.00;99360.95;105191;1268;61218;-72
2022/07/20 01:16:01;;;;;;;16.40;13.40;;;;;;;16.65;100.00;99365.39;105241;1271;61381;-72
2022/07/20 01:18:28;;;;;;;13.90;11.80;;;;;;;16.65;100.00;99365.05;104991;1272;61574;-72
2022/07/20 01:21:03;;;;;;;14.10;11.70;;;;;;;16.63;100.00;99365.55;105221;1268;61269;-72
2022/07/20 01:23:29;;;;;;;13.40;12.00;;;;;;;16.60;100.00;99364.23;105208;1271;73244;-72
2022/07/20 01:25:57;;;;;;;16.00;11.70;;;;;;;16.55;100.00;99365.21;105227;1268;61281;-72
2022/07/20 01:28:24;;;;;;;13.90;12.30;;;;;;;16.52;100.00;99364.90;105351;1268;61141;-72
2022/07/20 01:30:50;;;;;;;13.10;11.30;;;;;;;16.51;100.00;99365.23;105328;1270;75303;-70
2022/07/20 01:33:17;;;;;;;15.70;11.10;;;;;;;16.47;100.00;99368.94;105168;1268;61256;-71
2022/07/20 01:35:43;;;;;;;12.80;11.20;;;;;;;16.43;100.00;99369.23;105227;1270;61338;-72
2022/07/20 01:38:09;;;;;;;15.90;11.70;;;;;;;16.40;100.00;99367.88;105218;1268;61278;-72
2022/07/20 01:40:35;;;;;;;13.80;11.10;;;;;;;16.39;100.00;99365.89;105227;1271;61346;-73
2022/07/20 01:43:02;;;;;;;18.30;13.20;;;;;;;16.36;100.00;99366.46;105249;1271;61236;-73
2022/07/20 01:45:28;;;;;;;13.40;11.20;;;;;;;16.33;100.00;99371.20;105053;1271;61280;-73
2022/07/20 01:47:54;;;;;;;14.50;11.40;;;;;;;16.31;100.00;99367.75;105175;1268;61308;-72
2022/07/20 01:50:21;;;;;;;13.00;11.60;;;;;;;16.29;100.00;99365.84;105206;1271;61371;-72
2022/07/20 01:52:47;;;;;;;15.90;11.40;;;;;;;16.24;100.00;99362.96;104982;1272;61348;-72
2022/07/20 01:55:13;;;;;;;17.40;11.70;;;;;;;16.20;100.00;99365.64;105216;1268;61483;-72
2022/07/20 01:57:39;;;;;;;14.00;11.50;;;;;;;16.16;100.00;99367.27;105016;1272;61400;-72
2022/07/20 02:00:27;;;;;;;13.20;11.40;;;;;;;16.10;100.00;99366.54;105202;1268;61288;-73
2022/07/20 02:02:53;;;;;;;14.00;11.10;;;;;;;16.07;100.00;99368.26;105261;1269;61288;-73
2022/07/20 02:05:19;;;;;;;15.50;11.60;;;;;;;16.04;100.00;99364.36;105217;1271;61118;-72
2022/07/20 02:07:45;;;;;;;13.80;12.40;;;;;;;16.01;100.00;99368.88;105260;1271;61348;-72
2022/07/20 02:10:13;;;;;;;15.80;12.50;;;;;;;15.96;100.00;99366.82;105239;1271;61381;-72
2022/07/20 02:12:40;;;;;;;14.80;12.90;;;;;;;15.91;100.00;99371.70;105214;1270;73462;-73
2022/07/20 02:15:09;;;;;;;14.70;13.00;;;;;;;15.87;100.00;99370.23;105279;1271;61380;-72
2022/07/20 02:17:35;;;;;;;15.00;12.60;;;;;;;15.84;100.00;99369.38;105231;1270;61452;-72
2022/07/20 02:20:02;;;;;;;16.10;13.90;;;;;;;15.82;100.00;99364.73;105206;1271;61369;-71
2022/07/20 02:22:28;;;;;;;15.10;13.70;;;;;;;15.80;100.00;99370.95;105195;1271;69294;-72
2022/07/20 02:24:54;;;;;;;14.90;12.80;;;;;;;15.78;100.00;99374.18;105201;1271;61290;-72
2022/07/20 02:27:20;;;;;;;17.30;12.20;;;;;;;15.76;100.00;99374.85;105214;1271;61360;-73
2022/07/20 02:29:46;;;;;;;13.50;12.10;;;;;;;15.74;100.00;99371.31;104943;1272;61343;-71
2022/07/20 02:32:12;;;;;;;13.10;11.20;;;;;;;15.71;100.00;99372.10;105224;1271;61375;-74
2022/07/20 02:34:38;;;;;;;13.90;12.10;;;;;;;15.67;100.00;99371.88;105270;1271;61272;-73
2022/07/20 02:37:04;;;;;;;14.00;11.80;;;;;;;15.61;100.00;99369.48;105222;1271;61248;-71
2022/07/20 02:39:30;;;;;;;16.30;12.80;;;;;;;15.58;100.00;99370.71;105231;1271;61327;-72
2022/07/20 02:41:57;;;;;;;17.00;12.90;;;;;;;15.60;100.00;99367.61;105289;1271;61652;-71
2022/07/20 02:44:22;;;;;;;13.90;12.50;;;;;;;15.64;100.00;99370.27;105020;1272;69651;-70
2022/07/20 02:46:48;;;;;;;15.20;11.90;;;;;;;15.65;100.00;99369.32;104939;1269;61722;-72
2022/07/20 02:49:15;;;;;;;15.30;11.50;;;;;;;15.66;100.00;99370.52;105161;1271;61399;-72
2022/07/20 02:51:41;;;;;;;12.50;11.10;;;;;;;15.62;100.00;99367.25;105211;1271;61380;-72
2022/07/20 02:54:07;;;;;;;12.90;11.30;;;;;;;15.57;100.00;99369.06;105210;1271;61277;-71
2022/07/20 02:56:33;;;;;;;12.70;11.50;;;;;;;15.53;100.00;99372.43;105192;1271;61381;-71
2022/07/20 02:58:59;;;;;;;11.30;9.90;;;;;;;15.47;100.00;99377.89;105215;1270;61373;-71
2022/07/20 03:01:25;;;;;;;11.50;10.30;;;;;;;15.41;100.00;99373.05;105202;1271;61690;-71
2022/07/20 03:03:52;;;;;;;11.20;10.00;;;;;;;15.39;100.00;99378.25;105137;1271;61371;-70
2022/07/20 03:06:20;;;;;;;17.60;13.20;;;;;;;15.38;100.00;99375.25;105238;1270;61288;-72
2022/07/20 03:08:46;;;;;;;14.00;12.60;;;;;;;15.40;100.00;99371.55;105239;1271;61265;-72
2022/07/20 03:11:12;;;;;;;18.20;13.30;;;;;;;15.44;100.00;99372.84;105225;1271;61391;-72
2022/07/20 03:13:38;;;;;;;19.90;14.70;;;;;;;15.46;100.00;99373.33;105222;1270;61262;-73
2022/07/20 03:16:04;;;;;;;19.10;14.00;;;;;;;15.50;100.00;99371.26;105257;1271;61333;-73
2022/07/20 03:18:30;;;;;;;17.70;12.60;;;;;;;15.53;100.00;99372.05;105266;1271;61345;-72
2022/07/20 03:20:56;;;;;;;22.20;15.90;;;;;;;15.59;100.00;99369.96;104984;1274;61272;-73
2022/07/20 03:23:22;;;;;;;19.20;14.30;;;;;;;15.67;100.00;99370.91;105223;1271;61170;-72
2022/07/20 03:25:48;;;;;;;17.20;13.40;;;;;;;15.72;100.00;99374.25;105235;1271;61384;-73
2022/07/20 03:28:16;;;;;;;18.40;14.00;;;;;;;15.80;100.00;99381.74;105256;1271;61497;-72
2022/07/20 03:30:42;;;;;;;15.70;13.60;;;;;;;15.86;100.00;99383.24;105238;1271;70324;-72
2022/07/20 03:33:08;;;;;;;18.00;15.10;;;;;;;15.94;100.00;99382.14;105208;1271;61383;-71
2022/07/20 03:35:34;;;;;;;18.80;14.30;;;;;;;16.24;100.00;99386.61;105211;1271;61364;-73
2022/07/20 03:38:00;;;;;;;17.20;14.00;;;;;;;16.78;100.00;99386.41;105193;1271;61387;-73
2022/07/20 03:40:27;;;;;;;15.00;13.10;;;;;;;17.33;100.00;99384.45;105308;1271;61357;-73
2022/07/20 03:42:53;;;;;;;15.80;12.40;;;;;;;17.87;100.00;99385.52;105310;1271;61274;-72
2022/07/20 03:45:18;;;;;;;16.20;13.40;;;;;;;18.39;100.00;99386.69;105312;1271;61379;-73
2022/07/20 03:47:45;;;;;;;14.60;12.10;;;;;;;18.83;100.00;99383.11;105290;1271;61282;-72
2022/07/20 03:50:11;;;;;;;15.40;11.80;;;;;;;19.29;100.00;99384.70;105253;1274;61352;-73
2022/07/20 03:52:37;;;;;;;15.70;12.00;;;;;;;19.70;100.00;99381.42;105355;1271;69727;-73
2022/07/20 03:55:05;;;;;;;12.60;11.20;;;;;;;20.09;100.00;99377.36;105597;1271;61508;-70
2022/07/20 03:57:31;;;;;;;13.00;11.40;;;;;;;20.53;100.00;99381.45;105558;1274;61354;-72
2022/07/20 03:59:57;;;;;;;15.00;12.40;;;;;;;20.97;100.00;99382.85;105216;1271;61364;-74
2022/07/20 04:02:24;;;;;;;13.70;12.30;;;;;;;21.40;100.00;99387.58;105216;1271;61347;-72
2022/07/20 04:04:50;;;;;;;13.70;12.30;;;;;;;21.74;100.00;99389.02;105206;1271;61339;-73
2022/07/20 04:07:16;;;;;;;13.60;12.20;;;;;;;22.12;98.61;99390.76;105194;1271;61360;-72
2022/07/20 04:09:46;;;;;;;13.70;11.70;;;;;;;22.53;95.60;99392.06;105225;1271;61338;-72
2022/07/20 04:12:18;;;;;;;12.90;11.60;;;;;;;22.93;92.84;99391.20;105254;1271;61680;-73
2022/07/20 04:14:45;;;;;;;12.30;10.90;;;;;;;23.28;89.99;99391.09;105278;1271;74281;-73
2022/07/20 04:17:12;;;;;;;12.80;11.50;;;;;;;23.59;87.66;99390.95;105259;1271;70388;-72
2022/07/20 04:19:38;;;;;;;12.00;10.80;;;;;;;23.88;85.53;99394.67;105404;1271;73194;-72
2022/07/20 04:22:05;;;;;;;12.80;11.50;;;;;;;24.15;83.83;99389.62;105270;1271;61406;-73
2022/07/20 04:24:31;;;;;;;12.70;11.50;;;;;;;24.43;82.25;99386.27;105266;1271;61897;-72
2022/07/20 04:26:57;;;;;;;12.20;11.00;;;;;;;24.77;81.06;99389.15;105243;1271;61310;-72
2022/07/20 04:29:23;;;;;;;12.80;11.50;;;;;;;25.04;79.51;99389.04;105236;1271;61341;-73
2022/07/20 04:31:51;;;;;;;12.70;11.40;;;;;;;25.30;77.82;99391.13;105239;1271;61259;-73
2022/07/20 04:34:17;;;;;;;14.80;12.10;;;;;;;25.50;76.17;99389.17;105278;1271;61413;-73
2022/07/20 04:36:43;;;;;;;12.40;11.20;;;;;;;25.76;75.14;99386.58;105042;1271;61359;-73
2022/07/20 04:39:09;;;;;;;11.80;10.40;;;;;;;26.01;73.56;99389.09;105217;1271;61258;-73
2022/07/20 04:41:35;;;;;;;13.80;10.60;;;;;;;26.12;72.97;99388.77;105233;1271;61374;-72
2022/07/20 04:44:01;;;;;;;11.10;10.00;;;;;;;26.30;71.58;99389.55;105192;1271;61418;-73
2022/07/20 04:46:28;;;;;;;10.10;9.00;;;;;;;26.58;70.50;99387.48;105218;1271;61396;-73
2022/07/20 04:48:55;;;;;;;10.80;9.10;;;;;;;26.82;69.22;99387.52;104988;1274;61281;-73
2022/07/20 04:51:21;;;;;;;10.10;9.00;;;;;;;27.06;68.17;99385.33;104953;1271;61291;-73
2022/07/20 04:53:48;;;;;;;10.30;9.30;;;;;;;27.28;67.01;99389.98;104933;1274;62018;-73
2022/07/20 04:56:14;;;;;;;10.20;8.80;;;;;;;27.45;65.68;99393.56;105312;1271;61352;-72
2022/07/20 04:58:40;;;;;;;10.80;9.70;;;;;;;27.57;65.24;99402.39;105050;1271;61515;-73
2022/07/20 05:01:07;;;;;;;10.80;9.80;;;;;;;27.98;65.23;99407.60;105264;1271;61278;-74
2022/07/20 05:03:33;;;;;;;10.80;8.70;;;;;;;28.34;63.78;99405.39;105255;1273;61370;-72
2022/07/20 05:05:59;;;;;;;12.00;9.40;;;;;;;28.74;62.97;99397.27;105208;1271;61287;-73
2022/07/20 05:08:25;;;;;;;11.90;9.10;;;;;;;29.09;61.56;99396.95;105261;1271;61386;-72
2022/07/20 05:10:51;;;;;;;9.60;8.80;;;;;;;29.31;60.41;99391.89;105273;1271;61281;-72
2022/07/20 05:13:17;;;;;;;11.00;8.80;;;;;;;29.47;59.33;99393.25;105242;1268;76464;-73
2022/07/20 05:15:43;;;;;;;10.20;9.30;;;;;;;29.56;58.65;99394.52;105199;1271;61282;-73
2022/07/20 05:18:09;;;;;;;9.70;8.80;;;;;;;29.56;56.85;99391.62;105238;1271;61351;-72
2022/07/20 05:20:35;;;;;;;8.60;7.80;;;;;;;29.20;55.65;99396.68;105216;1272;62234;-72
2022/07/20 05:23:01;;;;;;;9.00;7.40;;;;;;;28.88;55.50;99398.30;105004;1273;61405;-73
2022/07/20 05:25:27;;;;;;;8.50;7.70;;;;;;;28.75;54.14;99403.98;105143;1271;61422;-72
2022/07/20 05:27:53;;;;;;;7.90;7.20;;;;;;;28.55;54.13;99406.27;105169;1271;61307;-70
2022/07/20 05:30:19;;;;;;;8.60;6.80;;;;;;;28.61;54.64;99404.45;105243;1271;61307;-72
2022/07/20 05:32:45;;;;;;;9.90;8.00;;;;;;;28.78;54.27;99407.66;105227;1271;61334;-71
2022/07/20 05:35:11;;;;;;;8.40;7.50;;;;;;;29.05;54.18;99404.42;105204;1272;74594;-72
2022/07/20 05:37:37;;;;;;;8.00;7.20;;;;;;;29.39;53.43;99406.07;105214;1271;61259;-72
2022/07/20 05:40:05;;;;;;;8.30;7.00;;;;;;;29.63;52.28;99407.15;105195;1272;61467;-72
2022/07/20 05:42:31;;;;;;;7.30;6.60;;;;;;;29.69;51.73;99414.13;105072;1271;61380;-72
2022/07/20 05:44:57;;;;;;;10.30;8.00;;;;;;;29.98;50.85;99411.94;105219;1272;61369;-72
2022/07/20 05:47:23;;;;;;;8.60;6.70;;;;;;;30.04;49.26;99406.39;105191;1268;61177;-72
2022/07/20 05:49:50;;;;;;;9.10;6.10;;;;;;;30.00;47.96;99407.40;105212;1271;61257;-73
2022/07/20 05:52:16;;;;;;;8.60;7.20;;;;;;;29.83;47.00;99406.30;105191;1273;61347;-72
2022/07/20 05:54:42;;;;;;;8.10;7.20;;;;;;;29.57;47.15;99407.45;105260;1271;61364;-72
2022/07/20 05:57:08;;;;;;;8.00;7.00;;;;;;;29.51;46.81;99406.77;105218;1272;61289;-72
2022/07/20 05:59:34;;;;;;;10.20;7.40;;;;;;;29.28;46.85;99407.78;105221;1272;61371;-71
2022/07/20 06:02:00;;;;;;;10.90;7.00;;;;;;;29.27;47.64;99412.48;105229;1274;61294;-72
2022/07/20 06:04:26;;;;;;;7.30;6.40;;;;;;;29.29;47.31;99406.85;105174;1272;59390;-71
2022/07/20 06:06:53;;;;;;;7.50;6.50;;;;;;;29.32;47.35;99406.00;105251;1272;61386;-73
2022/07/20 06:09:19;;;;;;;10.80;6.60;;;;;;;29.19;47.65;99405.44;105212;1271;76272;-73
2022/07/20 06:11:45;;;;;;;9.50;7.00;;;;;;;29.25;48.38;99403.60;104990;1274;61358;-71
2022/07/20 06:14:11;;;;;;;12.00;7.90;;;;;;;29.36;48.51;99402.83;105209;1270;61402;-73
2022/07/20 06:16:37;;;;;;;8.50;7.80;;;;;;;29.42;48.58;99406.58;105227;1271;61297;-72
2022/07/20 06:19:03;;;;;;;10.70;7.60;;;;;;;29.34;47.96;99410.27;105230;1272;61269;-72
2022/07/20 06:21:29;;;;;;;9.00;7.90;;;;;;;29.20;48.48;99414.39;105219;1271;61297;-72
2022/07/20 06:23:55;;;;;;;7.60;6.80;;;;;;;29.42;49.36;99416.20;105184;1269;61306;-72
2022/07/20 06:26:22;;;;;;;8.20;7.20;;;;;;;29.70;48.97;99416.61;105206;1272;61313;-72
2022/07/20 06:28:49;;;;;;;8.20;7.40;;;;;;;29.58;48.35;99421.84;105211;1273;61338;-73
2022/07/20 06:31:15;;;;;;;9.00;6.60;;;;;;;29.45;48.62;99423.37;105234;1271;61300;-73
2022/07/20 06:33:41;;;;;;;11.70;7.70;;;;;;;29.21;48.63;99426.80;105207;1270;61256;-72
2022/07/20 06:36:07;;;;;;;12.10;8.10;;;;;;;29.18;49.60;99425.66;105240;1270;61301;-73
2022/07/20 06:38:34;;;;;;;11.10;8.30;;;;;;;29.34;50.10;99426.91;105191;1272;61330;-73
2022/07/20 06:41:01;;;;;;;10.30;8.00;;;;;;;29.73;50.02;99427.39;105230;1271;61512;-72
2022/07/20 06:43:27;;;;;;;13.00;8.70;;;;;;;30.03;49.95;99426.33;105239;1271;61310;-73
2022/07/20 06:45:53;;;;;;;11.00;8.00;;;;;;;30.13;49.30;99428.73;105204;1271;61269;-73
2022/07/20 06:48:19;;;;;;;12.20;8.00;;;;;;;30.28;48.85;99430.16;105199;1271;61293;-73
2022/07/20 06:50:48;;;;;;;12.20;8.10;;;;;;;30.46;48.68;99432.17;105224;1271;61325;-73
2022/07/20 06:53:15;;;;;;;12.30;8.30;;;;;;;30.74;48.57;99430.08;105296;1271;61701;-72
2022/07/20 06:55:41;;;;;;;16.10;8.20;;;;;;;31.05;48.67;99427.48;105256;1270;75276;-72
2022/07/20 06:58:07;;;;;;;11.50;9.20;;;;;;;31.34;48.21;99432.00;105277;1271;61211;-73
2022/07/20 07:00:33;;;;;;;9.00;8.00;;;;;;;31.61;48.15;99433.09;105229;1271;61317;-74
2022/07/20 07:02:59;;;;;;;26.00;11.80;;;;;;;31.70;47.17;99435.23;105096;1271;61236;-71
2022/07/20 07:05:25;;;;;;;16.80;10.90;;;;;;;31.74;46.93;99435.89;105232;1271;61274;-72
2022/07/20 07:07:51;;;;;;;12.70;9.10;;;;;;;31.68;46.22;99436.75;105254;1271;61266;-73
2022/07/20 07:10:19;;;;;;;15.70;8.30;;;;;;;31.60;46.60;99440.54;105280;1269;61255;-73
2022/07/20 07:12:45;;;;;;;13.20;8.50;;;;;;;31.72;46.67;99438.69;105203;1271;61393;-73
2022/07/20 07:15:11;;;;;;;15.20;8.20;;;;;;;31.85;45.83;99441.48;104914;1272;61340;-73
2022/07/20 07:17:38;;;;;;;10.90;7.80;;;;;;;31.91;45.39;99439.45;105266;1271;61293;-73
2022/07/20 07:20:06;;;;;;;10.00;7.10;;;;;;;31.91;44.74;99436.79;105259;1271;61383;-73
2022/07/20 07:22:32;;;;;;;8.60;6.10;;;;;;;31.78;44.93;99437.16;105088;1271;70247;-72
2022/07/20 07:24:59;;;;;;;17.40;7.10;;;;;;;31.74;44.77;99436.77;105249;1271;61267;-72
2022/07/20 07:27:25;;;;;;;7.70;6.50;;;;;;;31.65;44.74;99436.34;105217;1271;61295;-72
2022/07/20 07:29:51;;;;;;;8.90;6.00;;;;;;;31.51;44.28;99438.84;105243;1270;61121;-72
2022/07/20 07:32:17;;;;;;;7.70;6.10;;;;;;;31.30;44.69;99435.51;105187;1271;61256;-73
2022/07/20 07:34:43;;;;;;;5.90;5.40;;;;;;;31.14;45.27;99433.71;105249;1271;61313;-73
2022/07/20 07:37:10;;;;;;;6.70;5.00;;;;;;;31.07;45.10;99434.41;105192;1271;61361;-72
2022/07/20 07:39:37;;;;;;;6.20;4.90;;;;;;;30.87;45.35;99438.92;105225;1271;61406;-72
2022/07/20 07:42:03;;;;;;;6.20;4.60;;;;;;;30.70;46.30;99439.63;105216;1271;61272;-73
2022/07/20 07:44:29;;;;;;;8.60;5.30;;;;;;;30.56;46.55;99440.36;105218;1271;61363;-73
2022/07/20 07:46:55;;;;;;;5.20;4.70;;;;;;;30.52;46.84;99440.82;104951;1272;61315;-80
2022/07/20 07:49:21;;;;;;;8.00;4.40;;;;;;;30.52;46.77;99442.56;105106;1271;61371;-72
2022/07/20 07:51:47;;;;;;;8.40;4.40;;;;;;;30.50;46.83;99440.36;105291;1271;61256;-73
2022/07/20 07:54:14;;;;;;;5.50;5.00;;;;;;;30.54;47.13;99441.39;105252;1271;61377;-72
2022/07/20 07:56:41;;;;;;;6.90;4.40;;;;;;;30.46;46.87;99439.92;105227;1269;69086;-73
2022/07/20 07:59:08;;;;;;;7.00;4.50;;;;;;;30.41;46.41;99430.17;105208;1271;74236;-72
2022/07/20 08:01:36;;;;;;;5.30;4.80;;;;;;;30.38;46.46;99431.81;104954;1271;61525;-72
2022/07/20 08:04:03;;;;;;;5.30;4.50;;;;;;;30.39;46.38;99429.35;105169;1271;61368;-73
2022/07/20 08:06:30;;;;;;;6.10;5.20;;;;;;;30.41;47.05;99429.37;105278;1271;76402;-72
2022/07/20 08:08:57;;;;;;;6.10;4.70;;;;;;;30.45;46.67;99425.59;105203;1271;61383;-72
2022/07/20 08:11:23;;;;;;;6.20;5.10;;;;;;;30.42;46.33;99427.85;105229;1269;73330;-73
2022/07/20 08:13:49;;;;;;;5.10;4.10;;;;;;;30.40;46.11;99427.02;105037;1272;61410;-72
2022/07/20 08:16:16;;;;;;;5.70;4.00;;;;;;;30.40;46.62;99427.18;105237;1271;61258;-72
2022/07/20 08:18:42;;;;;;;4.70;4.20;;;;;;;30.39;45.53;99426.67;105220;1270;61356;-72
2022/07/20 08:21:08;;;;;;;6.60;4.30;;;;;;;30.43;45.72;99424.36;104983;1271;61450;-73
2022/07/20 08:23:34;;;;;;;5.00;4.30;;;;;;;30.48;44.68;99425.05;105204;1269;61322;-73
2022/07/20 08:26:00;;;;;;;5.50;4.30;;;;;;;30.44;43.79;99420.34;105238;1271;61293;-72
2022/07/20 08:28:26;;;;;;;6.90;4.70;;;;;;;30.37;44.04;99421.02;104994;1271;61496;-72
2022/07/20 08:30:53;;;;;;;5.60;4.30;;;;;;;30.33;45.23;99425.19;105512;1271;61055;-73
2022/07/20 08:33:19;;;;;;;7.90;4.00;;;;;;;30.37;44.97;99423.48;105915;1271;60061;-72
2022/07/20 08:35:45;;;;;;;4.90;4.20;;;;;;;30.41;44.35;99425.61;105770;1271;61259;-72
2022/07/20 08:38:12;;;;;;;6.30;4.70;;;;;;;30.43;44.14;99419.96;105015;1271;61384;-73
2022/07/20 08:40:38;;;;;;;7.30;4.40;;;;;;;30.43;43.49;99417.98;105317;1271;61247;-73
2022/07/20 08:43:05;;;;;;;4.80;3.90;;;;;;;30.41;43.58;99417.14;105254;1271;61396;-73
2022/07/20 08:45:34;;;;;;;4.50;4.10;;;;;;;30.47;43.62;99416.73;105230;1268;61291;-72
2022/07/20 08:48:03;;;;;;;9.00;4.60;;;;;;;30.67;44.27;99417.27;105222;1271;61385;-73
2022/07/20 08:50:31;;;;;;;;;;;;;;;30.83;43.81;99415.42;105112;1271;61274;-72
2022/07/20 08:52:58;;;;;;;5.20;3.30;;;;;;;30.90;43.43;99409.15;105222;1269;61269;-72
2022/07/20 08:55:25;;;;;;;3.60;2.60;;;;;;;30.92;41.31;99407.48;105091;1272;75184;-70
2022/07/20 08:57:52;;;;;;;3.50;3.00;;;;;;;30.94;40.58;99407.42;105353;1268;70453;-71
2022/07/20 09:00:19;;;;;;;4.10;3.00;;;;;;;31.04;39.74;99405.34;105173;1268;61268;-73
2022/07/20 09:02:55;;;;;;;9.40;3.60;;;;;;;31.13;39.36;99406.88;105134;1271;61437;-72
2022/07/20 09:05:23;;;;;;;4.00;3.00;;;;;;;31.22;38.90;99406.98;104966;1272;61462;-73
2022/07/20 09:07:52;;;;;;;3.70;3.40;;;;;;;31.25;39.01;99409.79;105218;1271;75447;-73
2022/07/20 09:10:24;;;;;;;4.30;3.90;;;;;;;31.36;39.77;99407.91;105307;1271;69444;-72
2022/07/20 09:12:51;;;;;;;4.90;3.70;;;;;;;31.52;39.99;99404.96;105331;1271;73614;-72
2022/07/20 09:15:42;;;;;;;9.00;3.40;;;;;;;31.60;39.49;99402.59;105204;1271;61249;-72
2022/07/20 09:18:11;;;;;;;7.10;4.10;;;;;;;31.70;39.45;99404.09;105203;1271;61255;-72
2022/07/20 09:20:40;;;;;;;4.50;3.80;;;;;;;31.77;39.42;99405.01;105160;1269;75249;-73
2022/07/20 09:23:12;;;;;;;;;;;;;;;31.86;39.16;99401.80;105216;1271;70167;-73
2022/07/20 09:26:08;;;;;;;4.80;3.80;;;;;;;31.93;38.48;99398.23;105199;1270;73320;-72
2022/07/20 09:28:41;;;;;;;6.10;3.50;;;;;;;32.01;38.52;99400.25;104681;1277;61330;-72
2022/07/20 09:31:27;;;;;;;5.00;3.20;;;;;;;32.14;38.81;99397.60;104708;1277;61359;-72
2022/07/20 09:34:13;;;;;;;5.20;4.10;;;;;;;32.21;38.20;99397.50;104714;1277;76228;-72
2022/07/20 09:36:47;;;;;;;5.30;3.60;;;;;;;32.18;36.47;99400.19;104734;1277;69451;-73
2022/07/20 09:39:18;;;;;;;3.70;3.30;;;;;;;32.19;36.11;99397.67;104786;1277;73549;-72
2022/07/20 09:41:50;;;;;;;6.00;3.90;;;;;;;32.19;34.42;99400.80;104648;1277;61363;-73
2022/07/20 09:44:22;;;;;;;5.80;4.30;;;;;;;32.12;34.73;99398.98;104687;1277;61329;-73
2022/07/20 09:46:48;;;;;;;6.20;3.60;;;;;;;32.16;34.15;99401.73;104566;1277;248549;-73
2022/07/20 09:49:15;;;;;;;5.30;3.60;;;;;;;32.17;33.68;99395.40;104686;1277;69809;-71
2022/07/20 09:51:44;;;;;;;3.80;3.50;;;;;;;32.15;32.75;99394.71;104518;1277;61326;-72
2022/07/20 09:54:13;;;;;;;4.20;3.60;;;;;;;32.13;32.29;99392.40;104674;1277;61448;-72
2022/07/20 09:56:43;;;;;;;;;;;;;;;32.26;33.29;99396.83;104799;1277;62172;-72
2022/07/20 09:59:11;;;;;;;3.70;3.40;;;;;;;32.36;32.12;99396.35;104536;1277;74854;-72
2022/07/20 10:01:39;;;;;;;4.00;3.40;;;;;;;32.40;31.91;99396.52;104714;1277;68739;-72
2022/07/20 10:04:08;;;;;;;4.10;3.20;;;;;;;32.42;31.46;99388.58;104656;1277;71454;-72
2022/07/20 10:06:36;;;;;;;9.30;3.40;;;;;;;32.41;31.70;99383.46;105061;1271;61391;-71
2022/07/20 10:09:04;;;;;;;4.00;3.50;;;;;;;32.44;31.82;99381.14;105383;1271;61804;-72
2022/07/20 10:11:30;;;;;;;4.90;4.30;;;;;;;32.50;32.59;99380.81;105285;1270;76483;-72
2022/07/20 10:14:01;;;;;;;4.90;4.00;;;;;;;32.54;32.61;99380.86;105229;1271;67423;-73
2022/07/20 10:16:38;;;;;;;4.60;3.50;;;;;;;32.61;32.90;99379.32;105066;1272;74679;-72
2022/07/20 10:19:06;;;;;;;6.60;3.90;;;;;;;32.66;32.37;99381.83;105275;1271;61377;-73
2022/07/20 10:21:36;;;;;;;5.00;3.70;;;;;;;32.70;32.04;99379.85;105226;1271;61348;-73
2022/07/20 10:24:30;;;;;;;5.10;4.00;;;;;;;32.73;31.41;99379.91;105204;1271;73939;-73
2022/07/20 10:27:24;;;;;;;6.30;4.30;;;;;;;32.63;31.27;99380.73;105195;1271;69365;-72
2022/07/20 10:29:56;;;;;;;4.50;3.60;;;;;;;32.60;31.73;99377.08;104683;1277;73746;-74
2022/07/20 10:32:25;;;;;;;4.90;3.90;;;;;;;32.66;32.30;99379.02;104760;1277;61282;-72
2022/07/20 10:34:59;;;;;;;3.90;3.60;;;;;;;32.70;31.26;99380.73;104825;1277;61429;-72
2022/07/20 10:37:28;;;;;;;5.10;3.90;;;;;;;32.63;30.97;99378.61;104798;1277;75939;-72
2022/07/20 10:39:56;;;;;;;4.80;3.50;;;;;;;32.56;30.48;99378.55;104764;1277;69608;-73
2022/07/20 10:42:32;;;;;;;4.20;2.80;;;;;;;32.62;31.11;99371.79;104764;1277;73349;-72
2022/07/20 10:45:19;;;;;;;3.70;3.00;;;;;;;32.75;30.94;99369.92;104548;1278;61237;-73
2022/07/20 10:47:48;;;;;;;3.50;3.10;;;;;;;32.83;30.22;99365.73;103901;1285;61307;-73
2022/07/20 10:50:21;;;;;;;5.30;3.30;;;;;;;32.86;30.27;99361.45;103948;1285;75506;-72
2022/07/20 10:52:53;;;;;;;4.40;3.60;;;;;;;32.90;30.92;99359.06;103899;1285;69386;-72
2022/07/20 10:55:37;;;;;;;3.80;3.50;;;;;;;32.99;30.58;99360.66;103951;1285;72215;-72
2022/07/20 10:58:06;;;;;;;6.70;3.30;;;;;;;33.04;30.86;99360.64;103972;1285;61411;-73
2022/07/20 11:00:39;;;;;;;4.60;3.60;;;;;;;33.09;30.49;99361.82;103906;1287;61353;-72
2022/07/20 11:03:15;;;;;;;6.20;3.20;;;;;;;33.11;30.28;99363.52;103698;1287;75590;-72
2022/07/20 11:05:43;;;;;;;5.00;3.00;;;;;;;33.13;29.73;99360.47;103921;1285;69466;-74
2022/07/20 11:08:11;;;;;;;3.90;2.60;;;;;;;33.10;29.51;99356.54;104412;1279;74432;-72
2022/07/20 11:10:40;;;;;;;3.10;2.80;;;;;;;33.11;29.05;99360.81;104485;1279;61311;-72
2022/07/20 11:13:12;;;;;;;4.00;2.60;;;;;;;33.02;28.41;99356.63;104474;1279;62165;-72
2022/07/20 11:15:45;;;;;;;3.80;2.50;;;;;;;33.02;29.08;99358.11;104517;1279;76307;-72
2022/07/20 11:18:13;;;;;;;2.80;2.60;;;;;;;33.13;29.57;99352.57;104517;1279;70294;-72
2022/07/20 11:20:51;;;;;;;3.00;2.50;;;;;;;33.18;29.46;99352.73;104525;1280;73386;-72